Snow/Ice From: 16-12-2017 16:00 Until: 17-12-2017 16:00 warning for: Snow/Ice Level: Yellow info button

Although rather usual in this region, locally or potentially dangerous phenomena are expected. (such as local winds, summer thunderstorms, rising streams or high waves) Be aware and pay attention to the latest weather updates, especially if you carry out activities exposed to weather or close to a stream or shoreline. 


Meteo18 Weather Cam more information Meteo18 Weather Cam


Thunder radar more information blitzortung!


warning for Snow/Ice more information rain snow radar


Visit our other weather sites:

Template documentation
and downloads

And another site



Weather Underground History page Text

Daily Summary for April 14, 2017 Units:  Both    English   Metric
« Previous Day
Next Day »
Daily Weekly Monthly Yearly Custom
  High: Low: Average:
Temperature: 64.9 °F /  18.3 °C 46.4 °F /  8.0 °C 54.9 °F /  12.7 °C
Dew Point: 49.1 °F /  9.5 °C 41.9 °F /  5.5 °C 44.8 °F /  7.1 °C
Humidity: 88 % 48 % 70 %
Wind Speed: 5 mph /  8.0 km/h - 1.2 mph /  1.9 km/h
Wind Gust: 11 mph /  17.7 km/h - -
Wind:- - West
Pressure: 30.1 in /  1018.8 hPa 30 in /  1017.2 hPa -
Precipitation: 0 in /  0.0 mm    
Historical Graphs
 
 
Tabular Data for April 14, 2017
Time Temperature Dew Point Pressure Wind Wind Speed Wind Gust Humidity Rainfall Rate (Hourly)
00:02 48.7 °F /  9.3 °C 42.4 °F /  5.8 °C 30.1 in /  1018.8 hPa Calm   1 mph /  1.6 km/h 79 % 0 in /  0.0 mm
00:07 48.6 °F /  9.2 °C 42.3 °F /  5.7 °C 30.1 in /  1018.8 hPa Calm   1 mph /  1.6 km/h 79 % 0 in /  0.0 mm
00:12 48.4 °F /  9.1 °C 42.3 °F /  5.7 °C 30.1 in /  1018.8 hPa Calm   1 mph /  1.6 km/h 79 % 0 in /  0.0 mm
00:17 48.4 °F /  9.1 °C 42.3 °F /  5.7 °C 30.1 in /  1018.8 hPa Calm   1 mph /  1.6 km/h 79 % 0 in /  0.0 mm
00:22 48 °F /  8.9 °C 42.1 °F /  5.6 °C 30.1 in /  1018.5 hPa Calm   1 mph /  1.6 km/h 80 % 0 in /  0.0 mm
00:32 48 °F /  8.9 °C 42.1 °F /  5.6 °C 30.1 in /  1018.5 hPa Calm   1 mph /  1.6 km/h 80 % 0 in /  0.0 mm
00:42 47.8 °F /  8.8 °C 41.9 °F /  5.5 °C 30.1 in /  1018.5 hPa Calm   1 mph /  1.6 km/h 80 % 0 in /  0.0 mm
00:52 47.5 °F /  8.6 °C 41.9 °F /  5.5 °C 30.1 in /  1018.8 hPa Calm   2 mph /  3.2 km/h 81 % 0 in /  0.0 mm
00:57 47.5 °F /  8.6 °C 41.9 °F /  5.5 °C 30.1 in /  1018.8 hPa Calm   1 mph /  1.6 km/h 81 % 0 in /  0.0 mm
01:02 47.7 °F /  8.7 °C 42.1 °F /  5.6 °C 30.1 in /  1018.5 hPa Calm     81 % 0 in /  0.0 mm
01:07 48 °F /  8.9 °C 42.1 °F /  5.6 °C 30.1 in /  1018.5 hPa Calm   1 mph /  1.6 km/h 80 % 0 in /  0.0 mm
01:12 48.6 °F /  9.2 °C 42.6 °F /  5.9 °C 30.1 in /  1018.5 hPa NNW 1 mph /  1.6 km/h 1 mph /  1.6 km/h 80 % 0 in /  0.0 mm
01:17 48.7 °F /  9.3 °C 42.4 °F /  5.8 °C 30.1 in /  1018.5 hPa Calm   1 mph /  1.6 km/h 79 % 0 in /  0.0 mm
01:22 48.9 °F /  9.4 °C 42.6 °F /  5.9 °C 30.1 in /  1018.5 hPa NNW 1 mph /  1.6 km/h 1 mph /  1.6 km/h 79 % 0 in /  0.0 mm
01:27 49.3 °F /  9.6 °C 43 °F /  6.1 °C 30.1 in /  1018.5 hPa Calm   1 mph /  1.6 km/h 79 % 0 in /  0.0 mm
01:32 49.1 °F /  9.5 °C 42.8 °F /  6.0 °C 30.1 in /  1018.5 hPa Calm   1 mph /  1.6 km/h 79 % 0 in /  0.0 mm
01:42 49.5 °F /  9.7 °C 43.2 °F /  6.2 °C 30.1 in /  1018.5 hPa Calm   1 mph /  1.6 km/h 79 % 0 in /  0.0 mm
01:47 49.3 °F /  9.6 °C 43.3 °F /  6.3 °C 30.1 in /  1018.5 hPa Calm   1 mph /  1.6 km/h 80 % 0 in /  0.0 mm
01:52 48.9 °F /  9.4 °C 43.3 °F /  6.3 °C 30.1 in /  1018.5 hPa Calm   1 mph /  1.6 km/h 81 % 0 in /  0.0 mm
01:57 48.9 °F /  9.4 °C 43.7 °F /  6.5 °C 30.1 in /  1018.5 hPa Calm   1 mph /  1.6 km/h 82 % 0 in /  0.0 mm
02:02 48.9 °F /  9.4 °C 43.7 °F /  6.5 °C 30.1 in /  1018.5 hPa Calm   1 mph /  1.6 km/h 82 % 0 in /  0.0 mm
02:07 48.9 °F /  9.4 °C 43.3 °F /  6.3 °C 30.1 in /  1018.5 hPa Calm   1 mph /  1.6 km/h 81 % 0 in /  0.0 mm
02:12 49.3 °F /  9.6 °C 44.1 °F /  6.7 °C 30.1 in /  1018.2 hPa Calm   1 mph /  1.6 km/h 82 % 0 in /  0.0 mm
02:17 48.9 °F /  9.4 °C 44.1 °F /  6.7 °C 30.1 in /  1018.2 hPa Calm     83 % 0 in /  0.0 mm
02:22 48.7 °F /  9.3 °C 43.5 °F /  6.4 °C 30.1 in /  1018.2 hPa Calm     82 % 0 in /  0.0 mm
02:32 49.3 °F /  9.6 °C 44.4 °F /  6.9 °C 30.1 in /  1018.2 hPa Calm     83 % 0 in /  0.0 mm
02:37 49.3 °F /  9.6 °C 44.4 °F /  6.9 °C 30.1 in /  1018.2 hPa Calm     83 % 0 in /  0.0 mm
02:42 49.1 °F /  9.5 °C 44.2 °F /  6.8 °C 30.1 in /  1017.8 hPa NW 1 mph /  1.6 km/h 1 mph /  1.6 km/h 83 % 0 in /  0.0 mm
02:47 49.3 °F /  9.6 °C 43.7 °F /  6.5 °C 30.1 in /  1017.8 hPa Calm   1 mph /  1.6 km/h 81 % 0 in /  0.0 mm
02:52 49.6 °F /  9.8 °C 43.7 °F /  6.5 °C 30.1 in /  1017.8 hPa Calm   1 mph /  1.6 km/h 80 % 0 in /  0.0 mm
03:02 49.5 °F /  9.7 °C 43.5 °F /  6.4 °C 30.1 in /  1017.8 hPa Calm   2 mph /  3.2 km/h 80 % 0 in /  0.0 mm
03:07 50 °F /  10.0 °C 43.3 °F /  6.3 °C 30.1 in /  1017.8 hPa Calm   2 mph /  3.2 km/h 78 % 0 in /  0.0 mm
03:12 50.4 °F /  10.2 °C 43.3 °F /  6.3 °C 30.1 in /  1017.8 hPa Calm   2 mph /  3.2 km/h 77 % 0 in /  0.0 mm
03:17 50.4 °F /  10.2 °C 43.3 °F /  6.3 °C 30.1 in /  1017.8 hPa North 1 mph /  1.6 km/h 2 mph /  3.2 km/h 77 % 0 in /  0.0 mm
03:22 50 °F /  10.0 °C 43.3 °F /  6.3 °C 30.1 in /  1017.8 hPa Calm   2 mph /  3.2 km/h 78 % 0 in /  0.0 mm
03:32 49.5 °F /  9.7 °C 43.2 °F /  6.2 °C 30.1 in /  1017.8 hPa Calm   1 mph /  1.6 km/h 79 % 0 in /  0.0 mm
03:37 49.5 °F /  9.7 °C 43.2 °F /  6.2 °C 30.1 in /  1017.8 hPa Calm   1 mph /  1.6 km/h 79 % 0 in /  0.0 mm
03:42 49.5 °F /  9.7 °C 43.5 °F /  6.4 °C 30.1 in /  1017.8 hPa Calm   1 mph /  1.6 km/h 80 % 0 in /  0.0 mm
03:52 48.7 °F /  9.3 °C 43.2 °F /  6.2 °C 30.1 in /  1017.8 hPa Calm   1 mph /  1.6 km/h 81 % 0 in /  0.0 mm
04:02 48 °F /  8.9 °C 43.2 °F /  6.2 °C 30.1 in /  1017.8 hPa Calm   1 mph /  1.6 km/h 83 % 0 in /  0.0 mm
04:07 47.8 °F /  8.8 °C 43.2 °F /  6.2 °C 30.1 in /  1017.8 hPa Calm   1 mph /  1.6 km/h 84 % 0 in /  0.0 mm
04:12 47.7 °F /  8.7 °C 43 °F /  6.1 °C 30.1 in /  1017.8 hPa Calm   1 mph /  1.6 km/h 84 % 0 in /  0.0 mm
04:17 47.7 °F /  8.7 °C 43 °F /  6.1 °C 30.1 in /  1017.8 hPa Calm   1 mph /  1.6 km/h 84 % 0 in /  0.0 mm
04:22 47.7 °F /  8.7 °C 43 °F /  6.1 °C 30.1 in /  1017.8 hPa Calm   1 mph /  1.6 km/h 84 % 0 in /  0.0 mm
04:32 47.7 °F /  8.7 °C 43.3 °F /  6.3 °C 30.1 in /  1017.8 hPa Calm     85 % 0 in /  0.0 mm
04:42 47.7 °F /  8.7 °C 43 °F /  6.1 °C 30.1 in /  1017.8 hPa Calm     84 % 0 in /  0.0 mm
04:52 47.7 °F /  8.7 °C 43 °F /  6.1 °C 30.1 in /  1017.8 hPa Calm     84 % 0 in /  0.0 mm
04:57 47.5 °F /  8.6 °C 42.8 °F /  6.0 °C 30.1 in /  1017.8 hPa Calm     84 % 0 in /  0.0 mm
05:02 47.5 °F /  8.6 °C 43.2 °F /  6.2 °C 30.1 in /  1017.8 hPa Calm     85 % 0 in /  0.0 mm
05:12 47.1 °F /  8.4 °C 42.8 °F /  6.0 °C 30.1 in /  1017.8 hPa Calm     85 % 0 in /  0.0 mm
05:17 47.3 °F /  8.5 °C 43 °F /  6.1 °C 30.1 in /  1017.8 hPa Calm     85 % 0 in /  0.0 mm
05:22 47.5 °F /  8.6 °C 42.8 °F /  6.0 °C 30.1 in /  1017.5 hPa Calm     84 % 0 in /  0.0 mm
05:27 47.7 °F /  8.7 °C 43 °F /  6.1 °C 30.1 in /  1017.5 hPa Calm     84 % 0 in /  0.0 mm
05:32 47.5 °F /  8.6 °C 42.8 °F /  6.0 °C 30.1 in /  1017.5 hPa Calm     84 % 0 in /  0.0 mm
05:42 47.1 °F /  8.4 °C 42.8 °F /  6.0 °C 30.1 in /  1017.5 hPa Calm     85 % 0 in /  0.0 mm
05:47 47.1 °F /  8.4 °C 43.2 °F /  6.2 °C 30.1 in /  1017.5 hPa Calm     86 % 0 in /  0.0 mm
05:52 47.3 °F /  8.5 °C 43 °F /  6.1 °C 30.1 in /  1017.5 hPa Calm     85 % 0 in /  0.0 mm
05:57 47.3 °F /  8.5 °C 43 °F /  6.1 °C 30.1 in /  1017.5 hPa Calm     85 % 0 in /  0.0 mm
06:02 47.3 °F /  8.5 °C 43 °F /  6.1 °C 30.1 in /  1017.5 hPa Calm     85 % 0 in /  0.0 mm
06:12 47.5 °F /  8.6 °C 42.8 °F /  6.0 °C 30.1 in /  1017.5 hPa Calm     84 % 0 in /  0.0 mm
06:17 47.1 °F /  8.4 °C 42.6 °F /  5.9 °C 30.1 in /  1017.5 hPa Calm     84 % 0 in /  0.0 mm
06:22 46.9 °F /  8.3 °C 42.6 °F /  5.9 °C 30.1 in /  1017.5 hPa Calm     85 % 0 in /  0.0 mm
06:27 46.8 °F /  8.2 °C 42.4 °F /  5.8 °C 30.1 in /  1017.5 hPa Calm     85 % 0 in /  0.0 mm
06:32 46.8 °F /  8.2 °C 42.8 °F /  6.0 °C 30.1 in /  1017.5 hPa Calm     86 % 0 in /  0.0 mm
06:37 46.8 °F /  8.2 °C 42.8 °F /  6.0 °C 30.1 in /  1017.5 hPa Calm     86 % 0 in /  0.0 mm
06:42 46.6 °F /  8.1 °C 43 °F /  6.1 °C 30.1 in /  1017.5 hPa Calm     87 % 0 in /  0.0 mm
06:47 46.4 °F /  8.0 °C 42.8 °F /  6.0 °C 30.1 in /  1017.8 hPa Calm     87 % 0 in /  0.0 mm
06:52 46.6 °F /  8.1 °C 43 °F /  6.1 °C 30.1 in /  1017.8 hPa Calm     87 % 0 in /  0.0 mm
06:57 46.6 °F /  8.1 °C 43.2 °F /  6.2 °C 30.1 in /  1017.8 hPa Calm     88 % 0 in /  0.0 mm
07:02 46.8 °F /  8.2 °C 43.2 °F /  6.2 °C 30.1 in /  1017.8 hPa Calm     87 % 0 in /  0.0 mm
07:07 46.9 °F /  8.3 °C 43.3 °F /  6.3 °C 30.1 in /  1017.8 hPa Calm     87 % 0 in /  0.0 mm
07:12 46.9 °F /  8.3 °C 43.3 °F /  6.3 °C 30.1 in /  1017.8 hPa Calm     87 % 0 in /  0.0 mm
07:17 46.9 °F /  8.3 °C 43.3 °F /  6.3 °C 30.1 in /  1017.8 hPa Calm     87 % 0 in /  0.0 mm
07:22 47.1 °F /  8.4 °C 43.2 °F /  6.2 °C 30.1 in /  1017.8 hPa Calm     86 % 0 in /  0.0 mm
07:27 47.3 °F /  8.5 °C 43.3 °F /  6.3 °C 30.1 in /  1017.8 hPa Calm     86 % 0 in /  0.0 mm
07:32 47.5 °F /  8.6 °C 43.5 °F /  6.4 °C 30.1 in /  1017.8 hPa Calm     86 % 0 in /  0.0 mm
07:37 47.5 °F /  8.6 °C 43.9 °F /  6.6 °C 30.1 in /  1018.2 hPa Calm     87 % 0 in /  0.0 mm
07:42 47.5 °F /  8.6 °C 43.9 °F /  6.6 °C 30.1 in /  1018.2 hPa Calm     87 % 0 in /  0.0 mm
07:52 47.5 °F /  8.6 °C 43.9 °F /  6.6 °C 30.1 in /  1018.2 hPa Calm     87 % 0 in /  0.0 mm
07:57 47.5 °F /  8.6 °C 43.9 °F /  6.6 °C 30.1 in /  1018.2 hPa Calm     87 % 0 in /  0.0 mm
08:02 47.7 °F /  8.7 °C 44.1 °F /  6.7 °C 30.1 in /  1018.2 hPa Calm     87 % 0 in /  0.0 mm
08:07 47.8 °F /  8.8 °C 44.2 °F /  6.8 °C 30.1 in /  1018.2 hPa Calm     87 % 0 in /  0.0 mm
08:12 47.8 °F /  8.8 °C 44.2 °F /  6.8 °C 30.1 in /  1018.2 hPa Calm     87 % 0 in /  0.0 mm
08:17 48 °F /  8.9 °C 44.4 °F /  6.9 °C 30.1 in /  1018.2 hPa Calm     87 % 0 in /  0.0 mm
08:22 48.4 °F /  9.1 °C 44.8 °F /  7.1 °C 30.1 in /  1018.2 hPa Calm     87 % 0 in /  0.0 mm
08:27 48.6 °F /  9.2 °C 44.8 °F /  7.1 °C 30.1 in /  1018.2 hPa Calm     87 % 0 in /  0.0 mm
08:32 48.7 °F /  9.3 °C 44.4 °F /  6.9 °C 30.1 in /  1018.5 hPa Calm     85 % 0 in /  0.0 mm
08:37 49.1 °F /  9.5 °C 44.8 °F /  7.1 °C 30.1 in /  1018.2 hPa Calm     85 % 0 in /  0.0 mm
08:42 49.3 °F /  9.6 °C 44.6 °F /  7.0 °C 30.1 in /  1018.5 hPa Calm     84 % 0 in /  0.0 mm
08:52 49.5 °F /  9.7 °C 44.6 °F /  7.0 °C 30.1 in /  1018.5 hPa Calm     83 % 0 in /  0.0 mm
08:57 49.6 °F /  9.8 °C 44.8 °F /  7.1 °C 30.1 in /  1018.5 hPa Calm     83 % 0 in /  0.0 mm
09:02 50 °F /  10.0 °C 45 °F /  7.2 °C 30.1 in /  1018.5 hPa Calm     83 % 0 in /  0.0 mm
09:12 50.5 °F /  10.3 °C 45.9 °F /  7.7 °C 30.1 in /  1018.5 hPa Calm     84 % 0 in /  0.0 mm
09:17 50.7 °F /  10.4 °C 45.7 °F /  7.6 °C 30.1 in /  1018.5 hPa Calm     83 % 0 in /  0.0 mm
09:22 50.9 °F /  10.5 °C 45.7 °F /  7.6 °C 30.1 in /  1018.5 hPa Calm     82 % 0 in /  0.0 mm
09:32 51.6 °F /  10.9 °C 46 °F /  7.8 °C 30.1 in /  1018.5 hPa Calm     81 % 0 in /  0.0 mm
09:37 51.8 °F /  11.0 °C 45.5 °F /  7.5 °C 30.1 in /  1018.5 hPa Calm     79 % 0 in /  0.0 mm
09:42 52 °F /  11.1 °C 45.7 °F /  7.6 °C 30.1 in /  1018.5 hPa SW 2 mph /  3.2 km/h 3 mph /  4.8 km/h 79 % 0 in /  0.0 mm
09:52 52.3 °F /  11.3 °C 45.7 °F /  7.6 °C 30.1 in /  1018.5 hPa SW 1 mph /  1.6 km/h 3 mph /  4.8 km/h 78 % 0 in /  0.0 mm
09:57 52.7 °F /  11.5 °C 46 °F /  7.8 °C 30.1 in /  1018.5 hPa Calm   2 mph /  3.2 km/h 78 % 0 in /  0.0 mm
10:02 53.2 °F /  11.8 °C 46.2 °F /  7.9 °C 30.1 in /  1018.5 hPa Calm   2 mph /  3.2 km/h 77 % 0 in /  0.0 mm
10:07 53.4 °F /  11.9 °C 45.3 °F /  7.4 °C 30.1 in /  1018.8 hPa South 2 mph /  3.2 km/h 2 mph /  3.2 km/h 74 % 0 in /  0.0 mm
10:12 53.4 °F /  11.9 °C 45 °F /  7.2 °C 30.1 in /  1018.8 hPa SW 3 mph /  4.8 km/h 3 mph /  4.8 km/h 73 % 0 in /  0.0 mm
10:17 53.6 °F /  12.0 °C 44.8 °F /  7.1 °C 30.1 in /  1018.8 hPa SW 3 mph /  4.8 km/h 4 mph /  6.4 km/h 72 % 0 in /  0.0 mm
10:22 53.6 °F /  12.0 °C 45.1 °F /  7.3 °C 30.1 in /  1018.8 hPa SSW 1 mph /  1.6 km/h 4 mph /  6.4 km/h 73 % 0 in /  0.0 mm
10:27 53.6 °F /  12.0 °C 44.8 °F /  7.1 °C 30.1 in /  1018.8 hPa SW 3 mph /  4.8 km/h 4 mph /  6.4 km/h 72 % 0 in /  0.0 mm
10:32 54 °F /  12.2 °C 45.5 °F /  7.5 °C 30.1 in /  1018.8 hPa WSW 1 mph /  1.6 km/h 5 mph /  8.0 km/h 73 % 0 in /  0.0 mm
10:37 54 °F /  12.2 °C 45.5 °F /  7.5 °C 30.1 in /  1018.8 hPa WSW 3 mph /  4.8 km/h 5 mph /  8.0 km/h 73 % 0 in /  0.0 mm
10:42 54.1 °F /  12.3 °C 45.7 °F /  7.6 °C 30.1 in /  1018.8 hPa WSW 3 mph /  4.8 km/h 5 mph /  8.0 km/h 73 % 0 in /  0.0 mm
10:47 54.9 °F /  12.7 °C 46.4 °F /  8.0 °C 30.1 in /  1018.8 hPa Calm   4 mph /  6.4 km/h 73 % 0 in /  0.0 mm
10:52 55.2 °F /  12.9 °C 46 °F /  7.8 °C 30.1 in /  1018.8 hPa SW 2 mph /  3.2 km/h 4 mph /  6.4 km/h 71 % 0 in /  0.0 mm
10:57 55.6 °F /  13.1 °C 45.5 °F /  7.5 °C 30.1 in /  1018.8 hPa WSW 2 mph /  3.2 km/h 4 mph /  6.4 km/h 69 % 0 in /  0.0 mm
11:02 55.8 °F /  13.2 °C 46 °F /  7.8 °C 30.1 in /  1018.8 hPa Calm   4 mph /  6.4 km/h 70 % 0 in /  0.0 mm
11:07 56.1 °F /  13.4 °C 46 °F /  7.8 °C 30.1 in /  1018.8 hPa SSE 1 mph /  1.6 km/h 4 mph /  6.4 km/h 69 % 0 in /  0.0 mm
11:12 56.3 °F /  13.5 °C 45.9 °F /  7.7 °C 30.1 in /  1018.8 hPa Calm   4 mph /  6.4 km/h 68 % 0 in /  0.0 mm
11:17 56.7 °F /  13.7 °C 46.6 °F /  8.1 °C 30.1 in /  1018.8 hPa Calm   4 mph /  6.4 km/h 69 % 0 in /  0.0 mm
11:22 57.4 °F /  14.1 °C 46.9 °F /  8.3 °C 30.1 in /  1018.8 hPa ESE 2 mph /  3.2 km/h 4 mph /  6.4 km/h 68 % 0 in /  0.0 mm
11:27 57.7 °F /  14.3 °C 46.9 °F /  8.3 °C 30.1 in /  1018.8 hPa SW 2 mph /  3.2 km/h 4 mph /  6.4 km/h 67 % 0 in /  0.0 mm
11:32 58.1 °F /  14.5 °C 46.4 °F /  8.0 °C 30.1 in /  1018.8 hPa SSW 2 mph /  3.2 km/h 5 mph /  8.0 km/h 65 % 0 in /  0.0 mm
11:37 58.3 °F /  14.6 °C 47.3 °F /  8.5 °C 30.1 in /  1018.8 hPa South 3 mph /  4.8 km/h 6 mph /  9.7 km/h 67 % 0 in /  0.0 mm
11:42 58.5 °F /  14.7 °C 46.8 °F /  8.2 °C 30.1 in /  1018.8 hPa WSW 1 mph /  1.6 km/h 6 mph /  9.7 km/h 65 % 0 in /  0.0 mm
11:52 59.4 °F /  15.2 °C 48 °F /  8.9 °C 30.1 in /  1018.8 hPa WNW 1 mph /  1.6 km/h 4 mph /  6.4 km/h 66 % 0 in /  0.0 mm
11:57 59.4 °F /  15.2 °C 47.1 °F /  8.4 °C 30.1 in /  1018.8 hPa West 1 mph /  1.6 km/h 4 mph /  6.4 km/h 64 % 0 in /  0.0 mm
12:02 59.9 °F /  15.5 °C 47.7 °F /  8.7 °C 30.1 in /  1018.8 hPa Calm   4 mph /  6.4 km/h 64 % 0 in /  0.0 mm
12:07 60.6 °F /  15.9 °C 48 °F /  8.9 °C 30.1 in /  1018.8 hPa SW 1 mph /  1.6 km/h 4 mph /  6.4 km/h 63 % 0 in /  0.0 mm
12:17 60.6 °F /  15.9 °C 47.5 °F /  8.6 °C 30.1 in /  1018.8 hPa Calm   3 mph /  4.8 km/h 62 % 0 in /  0.0 mm
12:22 60.8 °F /  16.0 °C 48.2 °F /  9.0 °C 30.1 in /  1018.8 hPa NW 1 mph /  1.6 km/h 3 mph /  4.8 km/h 63 % 0 in /  0.0 mm
12:27 61 °F /  16.1 °C 47.5 °F /  8.6 °C 30.1 in /  1018.8 hPa Calm   3 mph /  4.8 km/h 61 % 0 in /  0.0 mm
12:32 61.2 °F /  16.2 °C 46.8 °F /  8.2 °C 30.1 in /  1018.5 hPa West 2 mph /  3.2 km/h 4 mph /  6.4 km/h 59 % 0 in /  0.0 mm
12:42 61.3 °F /  16.3 °C 46.9 °F /  8.3 °C 30.1 in /  1018.5 hPa NE 1 mph /  1.6 km/h 3 mph /  4.8 km/h 59 % 0 in /  0.0 mm
12:52 62.2 °F /  16.8 °C 49.1 °F /  9.5 °C 30.1 in /  1018.5 hPa Calm   3 mph /  4.8 km/h 62 % 0 in /  0.0 mm
12:57 62.2 °F /  16.8 °C 47.7 °F /  8.7 °C 30.1 in /  1018.5 hPa NE 1 mph /  1.6 km/h 3 mph /  4.8 km/h 59 % 0 in /  0.0 mm
13:02 61.3 °F /  16.3 °C 46.9 °F /  8.3 °C 30.1 in /  1018.5 hPa Calm   6 mph /  9.7 km/h 59 % 0 in /  0.0 mm
13:07 61.7 °F /  16.5 °C 47.3 °F /  8.5 °C 30.1 in /  1018.5 hPa North 1 mph /  1.6 km/h 6 mph /  9.7 km/h 59 % 0 in /  0.0 mm
13:12 61.5 °F /  16.4 °C 47.1 °F /  8.4 °C 30.1 in /  1018.5 hPa NE 2 mph /  3.2 km/h 6 mph /  9.7 km/h 59 % 0 in /  0.0 mm
13:17 61.2 °F /  16.2 °C 47.1 °F /  8.4 °C 30.1 in /  1018.5 hPa Calm   4 mph /  6.4 km/h 60 % 0 in /  0.0 mm
13:22 61.3 °F /  16.3 °C 46.9 °F /  8.3 °C 30.1 in /  1018.5 hPa Calm   4 mph /  6.4 km/h 59 % 0 in /  0.0 mm
13:27 61.5 °F /  16.4 °C 47.1 °F /  8.4 °C 30.1 in /  1018.5 hPa NNW 3 mph /  4.8 km/h 4 mph /  6.4 km/h 59 % 0 in /  0.0 mm
13:32 61.2 °F /  16.2 °C 47.1 °F /  8.4 °C 30.1 in /  1018.5 hPa NNW 3 mph /  4.8 km/h 6 mph /  9.7 km/h 60 % 0 in /  0.0 mm
13:37 60.6 °F /  15.9 °C 46.2 °F /  7.9 °C 30.1 in /  1018.5 hPa NNE 5 mph /  8.0 km/h 7 mph /  11.3 km/h 59 % 0 in /  0.0 mm
13:42 60.4 °F /  15.8 °C 46.4 °F /  8.0 °C 30.1 in /  1018.5 hPa Calm   7 mph /  11.3 km/h 60 % 0 in /  0.0 mm
13:47 60.6 °F /  15.9 °C 46.2 °F /  7.9 °C 30.1 in /  1018.5 hPa WNW 1 mph /  1.6 km/h 7 mph /  11.3 km/h 59 % 0 in /  0.0 mm
13:52 61 °F /  16.1 °C 45.7 °F /  7.6 °C 30.1 in /  1018.5 hPa NE 3 mph /  4.8 km/h 6 mph /  9.7 km/h 57 % 0 in /  0.0 mm
13:57 61 °F /  16.1 °C 45.7 °F /  7.6 °C 30.1 in /  1018.5 hPa Calm   5 mph /  8.0 km/h 57 % 0 in /  0.0 mm
14:02 61.3 °F /  16.3 °C 46.9 °F /  8.3 °C 30.1 in /  1018.5 hPa SE 1 mph /  1.6 km/h 5 mph /  8.0 km/h 59 % 0 in /  0.0 mm
14:12 63 °F /  17.2 °C 48 °F /  8.9 °C 30.1 in /  1018.2 hPa ENE 1 mph /  1.6 km/h 5 mph /  8.0 km/h 58 % 0 in /  0.0 mm
14:17 63.3 °F /  17.4 °C 46.9 °F /  8.3 °C 30.1 in /  1018.2 hPa NE 3 mph /  4.8 km/h 5 mph /  8.0 km/h 55 % 0 in /  0.0 mm
14:22 63.3 °F /  17.4 °C 46.4 °F /  8.0 °C 30.1 in /  1018.2 hPa Calm   5 mph /  8.0 km/h 54 % 0 in /  0.0 mm
14:32 63.9 °F /  17.7 °C 44.8 °F /  7.1 °C 30.1 in /  1018.2 hPa WNW 2 mph /  3.2 km/h 8 mph /  12.9 km/h 50 % 0 in /  0.0 mm
14:37 64.2 °F /  17.9 °C 45.1 °F /  7.3 °C 30.1 in /  1018.2 hPa Calm   8 mph /  12.9 km/h 50 % 0 in /  0.0 mm
14:42 64.9 °F /  18.3 °C 44.8 °F /  7.1 °C 30.1 in /  1018.2 hPa WSW 4 mph /  6.4 km/h 8 mph /  12.9 km/h 48 % 0 in /  0.0 mm
14:57 63.9 °F /  17.7 °C 45.3 °F /  7.4 °C 30.1 in /  1018.2 hPa NW 4 mph /  6.4 km/h 7 mph /  11.3 km/h 51 % 0 in /  0.0 mm
15:02 63.1 °F /  17.3 °C 44.8 °F /  7.1 °C 30.1 in /  1018.2 hPa Calm   8 mph /  12.9 km/h 51 % 0 in /  0.0 mm
15:07 63.1 °F /  17.3 °C 45.1 °F /  7.3 °C 30.1 in /  1018.2 hPa WNW 2 mph /  3.2 km/h 8 mph /  12.9 km/h 52 % 0 in /  0.0 mm
15:12 63.1 °F /  17.3 °C 44.8 °F /  7.1 °C 30.1 in /  1017.8 hPa NW 3 mph /  4.8 km/h 8 mph /  12.9 km/h 51 % 0 in /  0.0 mm
15:17 63 °F /  17.2 °C 45.1 °F /  7.3 °C 30.1 in /  1017.8 hPa WNW 4 mph /  6.4 km/h 9 mph /  14.5 km/h 52 % 0 in /  0.0 mm
15:22 63.1 °F /  17.3 °C 44.8 °F /  7.1 °C 30.1 in /  1017.8 hPa WSW 3 mph /  4.8 km/h 9 mph /  14.5 km/h 51 % 0 in /  0.0 mm
15:32 63.3 °F /  17.4 °C 46.4 °F /  8.0 °C 30.1 in /  1017.8 hPa WNW 4 mph /  6.4 km/h 6 mph /  9.7 km/h 54 % 0 in /  0.0 mm
15:37 63.3 °F /  17.4 °C 45 °F /  7.2 °C 30.1 in /  1017.8 hPa West 3 mph /  4.8 km/h 6 mph /  9.7 km/h 51 % 0 in /  0.0 mm
15:42 63.1 °F /  17.3 °C 44.8 °F /  7.1 °C 30.1 in /  1017.8 hPa WNW 5 mph /  8.0 km/h 6 mph /  9.7 km/h 51 % 0 in /  0.0 mm
15:52 63 °F /  17.2 °C 46.6 °F /  8.1 °C 30.1 in /  1017.8 hPa WNW 3 mph /  4.8 km/h 7 mph /  11.3 km/h 55 % 0 in /  0.0 mm
15:57 63 °F /  17.2 °C 45.1 °F /  7.3 °C 30.1 in /  1017.8 hPa WNW 1 mph /  1.6 km/h 7 mph /  11.3 km/h 52 % 0 in /  0.0 mm
16:02 63 °F /  17.2 °C 45.5 °F /  7.5 °C 30.1 in /  1017.5 hPa WNW 2 mph /  3.2 km/h 6 mph /  9.7 km/h 53 % 0 in /  0.0 mm
16:07 63 °F /  17.2 °C 44.6 °F /  7.0 °C 30.1 in /  1017.5 hPa WSW 5 mph /  8.0 km/h 6 mph /  9.7 km/h 51 % 0 in /  0.0 mm
16:12 63.1 °F /  17.3 °C 45.1 °F /  7.3 °C 30.1 in /  1017.5 hPa West 5 mph /  8.0 km/h 8 mph /  12.9 km/h 52 % 0 in /  0.0 mm
16:17 63.1 °F /  17.3 °C 45.7 °F /  7.6 °C 30.1 in /  1017.5 hPa WNW 3 mph /  4.8 km/h 8 mph /  12.9 km/h 53 % 0 in /  0.0 mm
16:22 63.3 °F /  17.4 °C 45.9 °F /  7.7 °C 30.1 in /  1017.5 hPa WNW 5 mph /  8.0 km/h 8 mph /  12.9 km/h 53 % 0 in /  0.0 mm
16:32 63 °F /  17.2 °C 45.5 °F /  7.5 °C 30.1 in /  1017.5 hPa Calm   7 mph /  11.3 km/h 53 % 0 in /  0.0 mm
16:37 63.1 °F /  17.3 °C 45.7 °F /  7.6 °C 30.1 in /  1017.5 hPa NNE 1 mph /  1.6 km/h 6 mph /  9.7 km/h 53 % 0 in /  0.0 mm
16:42 63.3 °F /  17.4 °C 46.4 °F /  8.0 °C 30.1 in /  1017.5 hPa NW 2 mph /  3.2 km/h 7 mph /  11.3 km/h 54 % 0 in /  0.0 mm
16:52 63.3 °F /  17.4 °C 45.3 °F /  7.4 °C 30.1 in /  1017.5 hPa West 4 mph /  6.4 km/h 7 mph /  11.3 km/h 52 % 0 in /  0.0 mm
16:57 63.3 °F /  17.4 °C 45.9 °F /  7.7 °C 30.1 in /  1017.5 hPa WNW 3 mph /  4.8 km/h 7 mph /  11.3 km/h 53 % 0 in /  0.0 mm
17:02 63.3 °F /  17.4 °C 45.9 °F /  7.7 °C 30.1 in /  1017.5 hPa WNW 3 mph /  4.8 km/h 6 mph /  9.7 km/h 53 % 0 in /  0.0 mm
17:07 63.1 °F /  17.3 °C 45.1 °F /  7.3 °C 30.1 in /  1017.5 hPa West 5 mph /  8.0 km/h 7 mph /  11.3 km/h 52 % 0 in /  0.0 mm
17:12 63 °F /  17.2 °C 45.1 °F /  7.3 °C 30.1 in /  1017.5 hPa West 3 mph /  4.8 km/h 7 mph /  11.3 km/h 52 % 0 in /  0.0 mm
17:17 63.1 °F /  17.3 °C 45.7 °F /  7.6 °C 30.1 in /  1017.5 hPa West 2 mph /  3.2 km/h 7 mph /  11.3 km/h 53 % 0 in /  0.0 mm
17:22 63.1 °F /  17.3 °C 45.1 °F /  7.3 °C 30.1 in /  1017.5 hPa WSW 1 mph /  1.6 km/h 7 mph /  11.3 km/h 52 % 0 in /  0.0 mm
17:32 63.1 °F /  17.3 °C 46.2 °F /  7.9 °C 30.1 in /  1017.5 hPa West 3 mph /  4.8 km/h 7 mph /  11.3 km/h 54 % 0 in /  0.0 mm
17:37 63 °F /  17.2 °C 45.5 °F /  7.5 °C 30.1 in /  1017.5 hPa West 1 mph /  1.6 km/h 7 mph /  11.3 km/h 53 % 0 in /  0.0 mm
17:42 63.3 °F /  17.4 °C 46.4 °F /  8.0 °C 30.1 in /  1017.5 hPa NNW 2 mph /  3.2 km/h 6 mph /  9.7 km/h 54 % 0 in /  0.0 mm
17:47 63.3 °F /  17.4 °C 46.4 °F /  8.0 °C 30.1 in /  1017.5 hPa WNW 3 mph /  4.8 km/h 4 mph /  6.4 km/h 54 % 0 in /  0.0 mm
17:52 63.7 °F /  17.6 °C 46.2 °F /  7.9 °C 30 in /  1017.2 hPa Calm   4 mph /  6.4 km/h 53 % 0 in /  0.0 mm
17:57 64.2 °F /  17.9 °C 45.7 °F /  7.6 °C 30 in /  1017.2 hPa West 4 mph /  6.4 km/h 4 mph /  6.4 km/h 51 % 0 in /  0.0 mm
18:02 64.4 °F /  18.0 °C 45.9 °F /  7.7 °C 30 in /  1017.2 hPa WNW 2 mph /  3.2 km/h 11 mph /  17.7 km/h 51 % 0 in /  0.0 mm
18:07 64.6 °F /  18.1 °C 46 °F /  7.8 °C 30 in /  1017.2 hPa West 5 mph /  8.0 km/h 11 mph /  17.7 km/h 51 % 0 in /  0.0 mm
18:12 64.2 °F /  17.9 °C 46.2 °F /  7.9 °C 30 in /  1017.2 hPa WNW 3 mph /  4.8 km/h 10 mph /  16.1 km/h 52 % 0 in /  0.0 mm
18:17 63.7 °F /  17.6 °C 45.1 °F /  7.3 °C 30 in /  1017.2 hPa WNW 3 mph /  4.8 km/h 10 mph /  16.1 km/h 51 % 0 in /  0.0 mm
18:22 63.3 °F /  17.4 °C 45.9 °F /  7.7 °C 30 in /  1017.2 hPa West 3 mph /  4.8 km/h 10 mph /  16.1 km/h 53 % 0 in /  0.0 mm
18:32 63 °F /  17.2 °C 46 °F /  7.8 °C 30 in /  1017.2 hPa WNW 3 mph /  4.8 km/h 7 mph /  11.3 km/h 54 % 0 in /  0.0 mm
18:42 63 °F /  17.2 °C 46.6 °F /  8.1 °C 30 in /  1017.2 hPa NW 1 mph /  1.6 km/h 6 mph /  9.7 km/h 55 % 0 in /  0.0 mm
18:52 63.3 °F /  17.4 °C 45.9 °F /  7.7 °C 30 in /  1017.2 hPa SW 1 mph /  1.6 km/h 5 mph /  8.0 km/h 53 % 0 in /  0.0 mm
18:57 63.1 °F /  17.3 °C 45.7 °F /  7.6 °C 30 in /  1017.2 hPa WNW 4 mph /  6.4 km/h 4 mph /  6.4 km/h 53 % 0 in /  0.0 mm
19:02 63 °F /  17.2 °C 46 °F /  7.8 °C 30 in /  1017.2 hPa WNW 5 mph /  8.0 km/h 8 mph /  12.9 km/h 54 % 0 in /  0.0 mm
19:07 62.8 °F /  17.1 °C 45.9 °F /  7.7 °C 30.1 in /  1017.5 hPa West 3 mph /  4.8 km/h 8 mph /  12.9 km/h 54 % 0 in /  0.0 mm
19:12 62.6 °F /  17.0 °C 46.2 °F /  7.9 °C 30.1 in /  1017.5 hPa West 3 mph /  4.8 km/h 8 mph /  12.9 km/h 55 % 0 in /  0.0 mm
19:17 62.4 °F /  16.9 °C 46 °F /  7.8 °C 30.1 in /  1017.5 hPa West 4 mph /  6.4 km/h 6 mph /  9.7 km/h 55 % 0 in /  0.0 mm
19:22 62.4 °F /  16.9 °C 46 °F /  7.8 °C 30 in /  1017.2 hPa West 5 mph /  8.0 km/h 6 mph /  9.7 km/h 55 % 0 in /  0.0 mm
19:27 62.2 °F /  16.8 °C 46.4 °F /  8.0 °C 30 in /  1017.2 hPa WSW 3 mph /  4.8 km/h 8 mph /  12.9 km/h 56 % 0 in /  0.0 mm
19:32 62.1 °F /  16.7 °C 46.2 °F /  7.9 °C 30.1 in /  1017.5 hPa WNW 3 mph /  4.8 km/h 8 mph /  12.9 km/h 56 % 0 in /  0.0 mm
19:42 61.9 °F /  16.6 °C 46 °F /  7.8 °C 30.1 in /  1017.5 hPa West 3 mph /  4.8 km/h 7 mph /  11.3 km/h 56 % 0 in /  0.0 mm
19:52 61.3 °F /  16.3 °C 45.5 °F /  7.5 °C 30.1 in /  1017.5 hPa West 3 mph /  4.8 km/h 7 mph /  11.3 km/h 56 % 0 in /  0.0 mm
19:57 61.3 °F /  16.3 °C 46 °F /  7.8 °C 30.1 in /  1017.5 hPa WNW 4 mph /  6.4 km/h 7 mph /  11.3 km/h 57 % 0 in /  0.0 mm
20:02 61.2 °F /  16.2 °C 45.9 °F /  7.7 °C 30.1 in /  1017.5 hPa WNW 3 mph /  4.8 km/h 8 mph /  12.9 km/h 57 % 0 in /  0.0 mm
20:12 60.6 °F /  15.9 °C 45.7 °F /  7.6 °C 30.1 in /  1017.5 hPa WNW 3 mph /  4.8 km/h 8 mph /  12.9 km/h 58 % 0 in /  0.0 mm
20:17 60.4 °F /  15.8 °C 46 °F /  7.8 °C 30.1 in /  1017.5 hPa WNW 3 mph /  4.8 km/h 7 mph /  11.3 km/h 59 % 0 in /  0.0 mm
20:22 60.3 °F /  15.7 °C 45.9 °F /  7.7 °C 30.1 in /  1017.5 hPa West 1 mph /  1.6 km/h 7 mph /  11.3 km/h 59 % 0 in /  0.0 mm
20:32 59.7 °F /  15.4 °C 45.9 °F /  7.7 °C 30.1 in /  1017.5 hPa WNW 2 mph /  3.2 km/h 6 mph /  9.7 km/h 60 % 0 in /  0.0 mm
20:37 59.5 °F /  15.3 °C 46 °F /  7.8 °C 30.1 in /  1017.8 hPa West 1 mph /  1.6 km/h 4 mph /  6.4 km/h 61 % 0 in /  0.0 mm
20:42 59.2 °F /  15.1 °C 45.7 °F /  7.6 °C 30.1 in /  1017.8 hPa WSW 1 mph /  1.6 km/h 4 mph /  6.4 km/h 61 % 0 in /  0.0 mm
20:47 58.6 °F /  14.8 °C 45.7 °F /  7.6 °C 30.1 in /  1017.8 hPa Calm   4 mph /  6.4 km/h 62 % 0 in /  0.0 mm
20:52 58.5 °F /  14.7 °C 45.9 °F /  7.7 °C 30.1 in /  1017.8 hPa Calm   4 mph /  6.4 km/h 63 % 0 in /  0.0 mm
21:02 57.7 °F /  14.3 °C 45.7 °F /  7.6 °C 30.1 in /  1017.8 hPa West 1 mph /  1.6 km/h 3 mph /  4.8 km/h 64 % 0 in /  0.0 mm
21:07 57.6 °F /  14.2 °C 45.9 °F /  7.7 °C 30.1 in /  1017.8 hPa WSW 1 mph /  1.6 km/h 3 mph /  4.8 km/h 65 % 0 in /  0.0 mm
21:12 57.4 °F /  14.1 °C 45.7 °F /  7.6 °C 30.1 in /  1017.8 hPa Calm   3 mph /  4.8 km/h 65 % 0 in /  0.0 mm
21:17 57.2 °F /  14.0 °C 45.5 °F /  7.5 °C 30.1 in /  1017.8 hPa WSW 1 mph /  1.6 km/h 2 mph /  3.2 km/h 65 % 0 in /  0.0 mm
21:22 57 °F /  13.9 °C 45.3 °F /  7.4 °C 30.1 in /  1017.8 hPa Calm   2 mph /  3.2 km/h 65 % 0 in /  0.0 mm
21:32 56.5 °F /  13.6 °C 45.7 °F /  7.6 °C 30.1 in /  1018.2 hPa NNW 2 mph /  3.2 km/h 4 mph /  6.4 km/h 67 % 0 in /  0.0 mm
21:42 55.8 °F /  13.2 °C 45.3 °F /  7.4 °C 30.1 in /  1018.2 hPa NW 1 mph /  1.6 km/h 4 mph /  6.4 km/h 68 % 0 in /  0.0 mm
21:47 55.9 °F /  13.3 °C 45.1 °F /  7.3 °C 30.1 in /  1018.2 hPa NW 1 mph /  1.6 km/h 3 mph /  4.8 km/h 67 % 0 in /  0.0 mm
21:52 55.6 °F /  13.1 °C 45.1 °F /  7.3 °C 30.1 in /  1018.5 hPa WNW 1 mph /  1.6 km/h 4 mph /  6.4 km/h 68 % 0 in /  0.0 mm
22:02 55 °F /  12.8 °C 45.1 °F /  7.3 °C 30.1 in /  1018.5 hPa NW 2 mph /  3.2 km/h 3 mph /  4.8 km/h 69 % 0 in /  0.0 mm
22:12 54.9 °F /  12.7 °C 45 °F /  7.2 °C 30.1 in /  1018.5 hPa NW 3 mph /  4.8 km/h 3 mph /  4.8 km/h 69 % 0 in /  0.0 mm
22:17 54.9 °F /  12.7 °C 44.4 °F /  6.9 °C 30.1 in /  1018.8 hPa NNW 1 mph /  1.6 km/h 3 mph /  4.8 km/h 68 % 0 in /  0.0 mm
22:22 54.7 °F /  12.6 °C 44.8 °F /  7.1 °C 30.1 in /  1018.8 hPa NW 2 mph /  3.2 km/h 3 mph /  4.8 km/h 69 % 0 in /  0.0 mm
22:32 54.3 °F /  12.4 °C 44.4 °F /  6.9 °C 30.1 in /  1018.8 hPa NW 1 mph /  1.6 km/h 3 mph /  4.8 km/h 69 % 0 in /  0.0 mm
22:37 54.3 °F /  12.4 °C 44.4 °F /  6.9 °C 30.1 in /  1018.5 hPa NW 2 mph /  3.2 km/h 3 mph /  4.8 km/h 69 % 0 in /  0.0 mm
22:42 54.1 °F /  12.3 °C 44.2 °F /  6.8 °C 30.1 in /  1018.5 hPa NW 1 mph /  1.6 km/h 3 mph /  4.8 km/h 69 % 0 in /  0.0 mm
22:47 54 °F /  12.2 °C 44.4 °F /  6.9 °C 30.1 in /  1018.5 hPa NW 2 mph /  3.2 km/h 3 mph /  4.8 km/h 70 % 0 in /  0.0 mm
22:52 53.8 °F /  12.1 °C 44.2 °F /  6.8 °C 30.1 in /  1018.5 hPa WNW 3 mph /  4.8 km/h 4 mph /  6.4 km/h 70 % 0 in /  0.0 mm
22:57 53.4 °F /  11.9 °C 43.9 °F /  6.6 °C 30.1 in /  1018.8 hPa NNW 1 mph /  1.6 km/h 4 mph /  6.4 km/h 70 % 0 in /  0.0 mm
23:02 53.2 °F /  11.8 °C 44.1 °F /  6.7 °C 30.1 in /  1018.8 hPa NNW 1 mph /  1.6 km/h 4 mph /  6.4 km/h 71 % 0 in /  0.0 mm
23:12 52.5 °F /  11.4 °C 43.7 °F /  6.5 °C 30.1 in /  1018.8 hPa NW 2 mph /  3.2 km/h 3 mph /  4.8 km/h 72 % 0 in /  0.0 mm
23:17 52.3 °F /  11.3 °C 43.5 °F /  6.4 °C 30.1 in /  1018.8 hPa NW 2 mph /  3.2 km/h 2 mph /  3.2 km/h 72 % 0 in /  0.0 mm
23:22 52.3 °F /  11.3 °C 43.5 °F /  6.4 °C 30.1 in /  1018.8 hPa NW 3 mph /  4.8 km/h 3 mph /  4.8 km/h 72 % 0 in /  0.0 mm
23:27 52.2 °F /  11.2 °C 43.3 °F /  6.3 °C 30.1 in /  1018.8 hPa NW 1 mph /  1.6 km/h 3 mph /  4.8 km/h 72 % 0 in /  0.0 mm
23:32 52.2 °F /  11.2 °C 43 °F /  6.1 °C 30.1 in /  1018.8 hPa NW 3 mph /  4.8 km/h 3 mph /  4.8 km/h 71 % 0 in /  0.0 mm
23:37 52.2 °F /  11.2 °C 43 °F /  6.1 °C 30.1 in /  1018.8 hPa NW 2 mph /  3.2 km/h 4 mph /  6.4 km/h 71 % 0 in /  0.0 mm
23:42 52 °F /  11.1 °C 42.8 °F /  6.0 °C 30.1 in /  1018.8 hPa NW 1 mph /  1.6 km/h 4 mph /  6.4 km/h 71 % 0 in /  0.0 mm
23:47 52 °F /  11.1 °C 42.8 °F /  6.0 °C 30.1 in /  1018.8 hPa Calm   4 mph /  6.4 km/h 71 % 0 in /  0.0 mm
23:52 51.6 °F /  10.9 °C 43 °F /  6.1 °C 30.1 in /  1018.8 hPa Calm   3 mph /  4.8 km/h 72 % 0 in /  0.0 mm
Meteo18
Compliments of Weather Underground - 4 mb

Script developed by  Jim McMurry - jmcmurry@mwt.net Adapted for the template by  Wim van der Kuil - Leuven-Template.eu

You find our weather info also at:

European Weather Network

Weather Underground

Equipment we use:

Weather-station
Davis Vue

Weather-program
Meteohub

Weather-server
Raspberry PI 2 B+

Provider
1 and 1

Davis Vue

Meteohub

Raspberry PI 2 B+

1 and 1